Time;durP1;ratioP1;P1;durP2;ratioP2;P2;SDS_P1;SDS_P2;PMS_P1;PMS_P2;Temp;Humidity;BMP_temperature;BMP_pressure;BME280_temperature;BME280_humidity;BME280_pressure;Samples;Min_cycle;Max_cycle;Signal;HPM_P1;HPM_P2
2022/04/23 00:01:08;;;;;;;20.53;18.53;;;12.90;99.90;;;;;;5053287;28;20421;-67
2022/04/23 00:03:34;;;;;;;18.43;16.70;;;12.90;99.90;;;;;;5054379;28;20175;-67
2022/04/23 00:06:01;;;;;;;18.67;16.73;;;12.80;99.90;;;;;;5054323;28;20213;-67
2022/04/23 00:08:26;;;;;;;19.57;17.47;;;12.60;99.90;;;;;;5053170;28;20423;-67
2022/04/23 00:10:52;;;;;;;19.53;17.70;;;12.50;99.90;;;;;;5053470;28;20516;-68
2022/04/23 00:13:17;;;;;;;20.63;18.77;;;12.40;99.90;;;;;;5050530;28;20209;-67
2022/04/23 00:15:43;;;;;;;19.00;16.10;;;12.40;99.90;;;;;;5033757;28;20207;-68
2022/04/23 00:18:09;;;;;;;18.93;17.10;;;12.40;99.90;;;;;;5034257;28;20156;-67
2022/04/23 00:20:37;;;;;;;19.60;17.60;;;12.30;99.90;;;;;;5034594;28;20513;-67
2022/04/23 00:23:03;;;;;;;19.20;17.40;;;12.20;99.90;;;;;;5034137;28;20909;-67
2022/04/23 00:25:29;;;;;;;19.17;17.33;;;12.20;99.90;;;;;;5034151;28;20785;-67
2022/04/23 00:27:54;;;;;;;18.33;16.83;;;12.20;99.90;;;;;;5034361;28;20445;-67
2022/04/23 00:30:20;;;;;;;17.87;16.07;;;12.20;99.90;;;;;;5036671;28;20194;-67
2022/04/23 00:32:46;;;;;;;18.27;16.47;;;12.30;99.90;;;;;;5053574;28;20218;-67
2022/04/23 00:35:16;;;;;;;15.70;14.23;;;12.30;99.90;;;;;;5054185;28;20551;-67
2022/04/23 00:37:44;;;;;;;18.30;16.40;;;12.40;99.90;;;;;;5053720;28;20980;-67
2022/04/23 00:40:16;;;;;;;18.40;16.60;;;12.40;99.90;;;;;;5053779;28;20536;-67
2022/04/23 00:42:52;;;;;;;17.27;15.57;;;12.40;99.90;;;;;;5053989;28;20404;-67
2022/04/23 00:45:18;;;;;;;18.20;16.47;;;12.20;99.90;;;;;;5053773;28;20426;-66
2022/04/23 00:47:44;;;;;;;15.57;14.17;;;12.30;99.90;;;;;;5053561;28;20494;-68
2022/04/23 00:50:10;;;;;;;16.63;15.07;;;12.30;99.90;;;;;;5053727;28;20405;-67
2022/04/23 00:52:36;;;;;;;17.20;15.70;;;12.30;99.90;;;;;;5053379;28;20202;-67
2022/04/23 00:55:03;;;;;;;17.00;15.50;;;12.20;99.90;;;;;;5053466;28;20849;-67
2022/04/23 00:57:29;;;;;;;14.27;12.80;;;12.30;99.90;;;;;;5052437;28;20167;-67
2022/04/23 00:59:55;;;;;;;17.63;16.07;;;12.30;99.90;;;;;;5052899;28;20492;-68
2022/04/23 01:02:22;;;;;;;16.53;15.03;;;12.20;99.90;;;;;;5052258;28;20173;-68
2022/04/23 01:04:48;;;;;;;15.63;14.17;;;12.10;99.90;;;;;;5053550;28;20429;-68
2022/04/23 01:07:13;;;;;;;15.37;14.07;;;12.00;99.90;;;;;;5053177;28;20409;-67
2022/04/23 01:09:44;;;;;;;16.40;14.83;;;12.00;99.90;;;;;;5052070;28;20184;-67
2022/04/23 01:12:11;;;;;;;16.30;14.80;;;12.10;99.90;;;;;;5053660;28;20183;-67
2022/04/23 01:15:00;;;;;;;14.47;13.17;;;12.10;99.90;;;;;;5051045;28;20452;-67
2022/04/23 01:17:26;;;;;;;15.87;14.40;;;12.00;99.90;;;;;;5043718;28;20430;-67
2022/04/23 01:19:51;;;;;;;15.77;14.30;;;12.00;99.90;;;;;;5053140;28;20407;-67
2022/04/23 01:22:17;;;;;;;14.90;13.60;;;12.10;99.90;;;;;;5051948;28;20171;-66
2022/04/23 01:24:43;;;;;;;15.30;13.83;;;12.20;99.90;;;;;;5050150;28;20544;-67
2022/04/23 01:27:10;;;;;;;16.43;14.80;;;12.20;99.90;;;;;;5053215;28;20462;-67
2022/04/23 01:29:37;;;;;;;15.47;13.97;;;12.30;99.90;;;;;;5053284;28;20625;-67
2022/04/23 01:32:06;;;;;;;14.67;13.47;;;12.40;99.90;;;;;;5052372;28;20967;-67
2022/04/23 01:34:32;;;;;;;15.47;14.00;;;12.40;99.90;;;;;;5051599;28;21011;-68
2022/04/23 01:36:58;;;;;;;15.87;14.50;;;12.30;99.90;;;;;;5052987;28;20444;-67
2022/04/23 01:39:23;;;;;;;15.13;13.63;;;12.30;99.90;;;;;;5052896;28;20517;-67
2022/04/23 01:41:49;;;;;;;16.17;14.53;;;12.20;99.90;;;;;;5052781;28;20232;-67
2022/04/23 01:44:15;;;;;;;16.83;15.33;;;12.20;99.90;;;;;;5052732;28;20171;-67
2022/04/23 01:46:41;;;;;;;16.47;14.87;;;12.20;99.90;;;;;;5052244;28;20174;-67
2022/04/23 01:49:07;;;;;;;17.00;15.40;;;12.10;99.90;;;;;;5052784;28;20889;-67
2022/04/23 01:51:33;;;;;;;15.70;14.20;;;12.10;99.90;;;;;;5052835;28;20502;-67
2022/04/23 01:53:58;;;;;;;18.13;16.43;;;12.10;99.90;;;;;;5052197;28;20198;-67
2022/04/23 01:56:25;;;;;;;16.97;15.43;;;12.10;99.90;;;;;;5051721;28;20212;-67
2022/04/23 01:58:51;;;;;;;16.40;14.87;;;12.00;99.90;;;;;;5051342;28;20179;-67
2022/04/23 02:01:17;;;;;;;16.57;15.00;;;12.10;99.90;;;;;;5050573;28;20428;-67
2022/04/23 02:03:45;;;;;;;16.93;15.30;;;12.10;99.90;;;;;;5050893;28;20206;-67
2022/04/23 02:06:12;;;;;;;16.73;15.30;;;12.10;99.90;;;;;;5052927;28;20463;-67
2022/04/23 02:08:38;;;;;;;18.00;16.40;;;12.10;99.90;;;;;;5052772;28;20734;-68
2022/04/23 02:11:03;;;;;;;16.87;15.23;;;12.00;99.90;;;;;;5051310;28;20441;-68
2022/04/23 02:13:30;;;;;;;17.30;15.60;;;11.90;99.90;;;;;;5054632;28;20403;-67
2022/04/23 02:15:56;;;;;;;18.00;16.30;;;11.80;99.90;;;;;;5056010;28;20218;-67
2022/04/23 02:18:22;;;;;;;18.83;17.13;;;11.80;99.90;;;;;;5056677;28;20500;-67
2022/04/23 02:20:48;;;;;;;17.67;16.07;;;11.90;99.90;;;;;;5056843;28;20233;-67
2022/04/23 02:23:14;;;;;;;16.67;15.13;;;11.80;99.90;;;;;;5056761;28;20399;-67
2022/04/23 02:25:39;;;;;;;18.03;16.33;;;11.90;99.90;;;;;;5056918;28;20470;-67
2022/04/23 02:28:05;;;;;;;17.83;16.20;;;11.70;99.90;;;;;;5056649;28;20534;-67
2022/04/23 02:30:32;;;;;;;18.80;16.23;;;11.80;99.90;;;;;;5056132;28;20611;-67
2022/04/23 02:32:58;;;;;;;21.67;19.57;;;11.80;99.90;;;;;;5056164;28;20448;-67
2022/04/23 02:35:24;;;;;;;20.57;18.67;;;11.70;99.90;;;;;;5055266;28;20429;-67
2022/04/23 02:37:53;;;;;;;21.90;19.87;;;11.60;99.90;;;;;;5056516;28;20188;-67
2022/04/23 02:40:19;;;;;;;19.97;17.97;;;11.60;99.90;;;;;;5056722;28;20235;-67
2022/04/23 02:42:45;;;;;;;19.07;17.27;;;11.70;99.90;;;;;;5056602;28;20944;-67
2022/04/23 02:45:13;;;;;;;19.40;17.60;;;11.70;99.90;;;;;;5055923;28;20188;-67
2022/04/23 02:47:49;;;;;;;18.87;17.23;;;11.70;99.90;;;;;;5055979;28;20170;-67
2022/04/23 02:50:26;;;;;;;21.20;19.07;;;11.70;99.90;;;;;;5056159;28;20391;-67
2022/04/23 02:52:51;;;;;;;18.70;17.00;;;11.60;99.90;;;;;;5055978;28;20416;-67
2022/04/23 02:55:17;;;;;;;18.67;17.00;;;11.60;99.90;;;;;;5056054;28;20433;-67
2022/04/23 02:57:43;;;;;;;17.73;16.17;;;11.60;99.90;;;;;;5054495;28;20171;-67
2022/04/23 03:00:10;;;;;;;20.20;18.10;;;11.50;99.90;;;;;;5055558;28;20232;-69
2022/04/23 03:02:36;;;;;;;18.07;16.37;;;11.40;99.90;;;;;;5054767;28;20174;-67
2022/04/23 03:05:07;;;;;;;18.60;16.83;;;11.30;99.90;;;;;;5055811;28;20432;-67
2022/04/23 03:07:35;;;;;;;19.43;17.57;;;11.30;99.90;;;;;;5055592;28;20466;-67
2022/04/23 03:10:04;;;;;;;19.17;17.27;;;11.30;99.90;;;;;;5055435;28;20484;-67
2022/04/23 03:12:30;;;;;;;19.50;17.70;;;11.30;99.90;;;;;;5055390;28;20440;-67
2022/04/23 03:14:55;;;;;;;18.07;16.30;;;11.20;99.90;;;;;;5055401;28;20449;-67
2022/04/23 03:17:21;;;;;;;18.20;16.40;;;11.20;99.90;;;;;;5055115;28;20150;-67
2022/04/23 03:19:47;;;;;;;17.50;15.73;;;11.20;99.90;;;;;;5055353;28;20170;-67
2022/04/23 03:22:16;;;;;;;18.07;16.40;;;11.10;99.90;;;;;;5055256;28;20202;-67
2022/04/23 03:24:42;;;;;;;18.37;16.67;;;11.10;99.90;;;;;;5054741;28;20194;-67
2022/04/23 03:27:07;;;;;;;20.63;18.60;;;11.00;99.90;;;;;;5054112;28;20417;-67
2022/04/23 03:29:33;;;;;;;17.90;16.23;;;10.80;99.90;;;;;;5055194;28;20250;-67
2022/04/23 03:31:59;;;;;;;21.40;18.43;;;10.80;99.90;;;;;;5054715;28;20196;-67
2022/04/23 03:34:25;;;;;;;19.07;17.27;;;10.80;99.90;;;;;;5055101;28;20548;-67
2022/04/23 03:36:51;;;;;;;20.73;18.80;;;10.70;99.90;;;;;;5055119;28;20418;-67
2022/04/23 03:39:16;;;;;;;18.67;16.97;;;10.60;99.90;;;;;;5054995;28;20168;-67
2022/04/23 03:41:42;;;;;;;19.13;17.33;;;10.50;99.90;;;;;;5054954;28;20228;-67
2022/04/23 03:44:07;;;;;;;19.67;17.60;;;10.50;99.90;;;;;;5055164;28;20174;-67
2022/04/23 03:46:33;;;;;;;19.27;17.40;;;10.50;99.90;;;;;;5054331;28;20557;-67
2022/04/23 03:48:59;;;;;;;20.83;18.93;;;10.50;99.90;;;;;;5055328;28;20538;-67
2022/04/23 03:51:24;;;;;;;23.37;21.07;;;10.40;99.90;;;;;;5054718;28;20205;-67
2022/04/23 03:53:50;;;;;;;21.20;19.20;;;10.30;99.90;;;;;;5055194;28;20481;-67
2022/04/23 03:56:16;;;;;;;20.40;18.50;;;10.40;99.90;;;;;;5054758;28;20227;-67
2022/04/23 03:58:42;;;;;;;19.97;18.07;;;10.40;99.90;;;;;;5054953;28;20170;-67
2022/04/23 04:01:08;;;;;;;24.30;21.90;;;10.30;99.90;;;;;;5053542;28;20519;-67
2022/04/23 04:03:34;;;;;;;22.87;20.47;;;10.20;99.90;;;;;;5054745;28;20428;-67
2022/04/23 04:06:00;;;;;;;22.00;19.90;;;10.20;99.90;;;;;;5054360;28;20260;-67
2022/04/23 04:08:26;;;;;;;20.40;18.43;;;10.20;99.90;;;;;;5054758;28;20494;-67
2022/04/23 04:10:51;;;;;;;20.13;18.33;;;10.20;99.90;;;;;;5054575;28;20214;-67
2022/04/23 04:13:17;;;;;;;19.87;17.90;;;10.30;99.90;;;;;;5054659;28;20159;-67
2022/04/23 04:15:43;;;;;;;18.87;17.03;;;10.30;99.90;;;;;;5078121;22;20231;-68
2022/04/23 04:18:11;;;;;;;21.83;19.73;;;10.40;99.90;;;;;;5094196;28;20160;-68
2022/04/23 04:20:37;;;;;;;20.07;18.07;;;10.40;99.90;;;;;;5094057;28;20390;-68
2022/04/23 04:23:03;;;;;;;20.07;18.07;;;10.40;99.90;;;;;;5093045;28;20403;-68
2022/04/23 04:25:28;;;;;;;20.00;18.03;;;10.40;99.90;;;;;;5094122;28;20922;-68
2022/04/23 04:27:54;;;;;;;21.57;19.47;;;10.40;99.90;;;;;;5094673;28;20187;-69
2022/04/23 04:30:20;;;;;;;20.17;18.27;;;10.40;99.90;;;;;;5093449;28;20607;-68
2022/04/23 04:32:45;;;;;;;20.83;18.93;;;10.50;99.90;;;;;;5094174;28;20187;-68
2022/04/23 04:35:11;;;;;;;19.33;17.43;;;10.60;99.90;;;;;;5088171;28;20176;-68
2022/04/23 04:37:37;;;;;;;19.83;17.97;;;10.50;99.90;;;;;;5084005;28;20179;-68
2022/04/23 04:40:04;;;;;;;15.90;14.40;;;10.60;99.90;;;;;;5084053;28;20190;-69
2022/04/23 04:42:30;;;;;;;17.53;15.93;;;10.60;99.90;;;;;;5083785;28;20852;-68
2022/04/23 04:44:56;;;;;;;16.90;15.30;;;10.70;99.90;;;;;;5084025;28;20878;-69
2022/04/23 04:47:21;;;;;;;18.47;16.83;;;10.90;99.90;;;;;;5083259;28;20727;-68
2022/04/23 04:49:47;;;;;;;17.67;16.07;;;11.10;99.90;;;;;;5084001;28;20188;-69
2022/04/23 04:52:12;;;;;;;16.70;15.20;;;11.00;99.90;;;;;;5083780;28;20200;-68
2022/04/23 04:54:38;;;;;;;17.07;15.47;;;10.90;99.90;;;;;;5083103;28;20192;-70
2022/04/23 04:57:04;;;;;;;15.40;14.00;;;11.00;99.90;;;;;;5090811;28;20189;-69
2022/04/23 04:59:34;;;;;;;16.20;14.63;;;11.20;99.90;;;;;;5093870;28;20165;-69
2022/04/23 05:02:01;;;;;;;14.83;13.53;;;11.20;99.90;;;;;;5091452;28;20168;-69
2022/04/23 05:04:27;;;;;;;15.60;14.20;;;11.40;99.90;;;;;;5093900;28;20519;-68
2022/04/23 05:06:52;;;;;;;16.57;14.97;;;11.50;99.90;;;;;;5084692;28;20501;-67
2022/04/23 05:09:18;;;;;;;16.20;14.80;;;11.50;99.90;;;;;;5083673;28;20414;-68
2022/04/23 05:11:44;;;;;;;16.37;14.83;;;11.60;99.90;;;;;;5083233;28;20193;-68
2022/04/23 05:14:10;;;;;;;17.17;15.53;;;11.70;99.90;;;;;;5081985;28;20257;-69
2022/04/23 05:16:36;;;;;;;17.10;15.50;;;11.40;99.90;;;;;;5081145;28;20508;-68
2022/04/23 05:19:01;;;;;;;15.63;14.23;;;11.40;99.90;;;;;;5083638;28;20895;-68
2022/04/23 05:21:27;;;;;;;16.00;14.60;;;11.20;99.90;;;;;;5083372;28;20176;-70
2022/04/23 05:23:52;;;;;;;15.30;13.90;;;11.20;99.90;;;;;;5083249;28;20186;-70
2022/04/23 05:26:19;;;;;;;16.97;15.47;;;11.20;99.90;;;;;;5081796;28;20297;-70
2022/04/23 05:28:44;;;;;;;15.47;14.07;;;11.10;99.90;;;;;;5083123;28;20607;-69
2022/04/23 05:31:10;;;;;;;14.40;13.10;;;11.30;99.90;;;;;;5087327;28;20446;-70
2022/04/23 05:33:36;;;;;;;13.77;12.47;;;11.50;99.90;;;;;;5092978;28;20164;-69
2022/04/23 05:36:06;;;;;;;15.00;13.60;;;11.70;99.90;;;;;;5092827;28;20184;-70
2022/04/23 05:38:34;;;;;;;15.70;14.20;;;11.70;99.90;;;;;;5092969;28;20888;-70
2022/04/23 05:41:00;;;;;;;16.10;14.60;;;11.70;99.90;;;;;;5092730;28;20403;-70
2022/04/23 05:43:26;;;;;;;15.57;14.10;;;11.70;99.90;;;;;;5091441;28;20413;-70
2022/04/23 05:45:52;;;;;;;15.83;14.23;;;11.60;99.90;;;;;;5091031;28;20482;-70
2022/04/23 05:48:17;;;;;;;16.13;14.57;;;11.80;99.90;;;;;;5092085;28;20535;-70
2022/04/23 05:50:43;;;;;;;14.73;13.37;;;11.90;99.90;;;;;;5092793;28;20176;-70
2022/04/23 05:53:08;;;;;;;14.10;12.90;;;12.00;99.90;;;;;;5092806;28;20264;-70
2022/04/23 05:55:35;;;;;;;15.70;14.13;;;12.00;99.90;;;;;;5092720;28;20203;-70
2022/04/23 05:58:00;;;;;;;14.60;13.30;;;11.70;99.90;;;;;;5092603;28;20173;-70
2022/04/23 06:00:26;;;;;;;23.17;13.33;;;12.00;99.90;;;;;;5091324;28;20411;-70
2022/04/23 06:02:51;;;;;;;14.80;13.60;;;12.20;99.90;;;;;;5091924;28;20241;-69
2022/04/23 06:05:17;;;;;;;14.80;13.50;;;12.00;99.90;;;;;;5092645;28;20227;-70
2022/04/23 06:07:42;;;;;;;14.80;13.47;;;11.90;99.90;;;;;;5092843;28;20166;-70
2022/04/23 06:10:09;;;;;;;13.80;12.60;;;12.00;99.90;;;;;;5092835;28;20222;-70
2022/04/23 06:12:35;;;;;;;14.90;13.50;;;11.90;99.90;;;;;;5093381;28;20239;-70
2022/04/23 06:15:01;;;;;;;14.93;13.60;;;11.90;99.90;;;;;;5093817;28;20930;-70
2022/04/23 06:17:28;;;;;;;16.27;14.70;;;11.70;99.90;;;;;;5092646;28;20489;-68
2022/04/23 06:19:57;;;;;;;14.20;12.90;;;11.80;99.90;;;;;;5093302;28;20165;-69
2022/04/23 06:22:23;;;;;;;14.50;13.03;;;12.00;99.90;;;;;;5108599;28;20426;-70
2022/04/23 06:24:50;;;;;;;13.93;12.63;;;12.00;99.90;;;;;;5092502;28;20406;-69
2022/04/23 06:27:15;;;;;;;14.43;13.13;;;12.00;99.90;;;;;;5092505;28;20419;-69
2022/04/23 06:29:41;;;;;;;13.73;11.50;;;12.10;99.90;;;;;;5092236;28;20421;-67
2022/04/23 06:32:10;;;;;;;14.07;12.70;;;12.10;99.90;;;;;;5091894;28;20291;-70
2022/04/23 06:34:37;;;;;;;11.87;10.87;;;11.90;99.90;;;;;;5093047;28;20169;-71
2022/04/23 06:37:06;;;;;;;12.80;11.70;;;11.90;99.90;;;;;;5093561;28;20416;-70
2022/04/23 06:39:32;;;;;;;13.57;12.37;;;12.00;99.90;;;;;;5093261;28;20484;-70
2022/04/23 06:41:58;;;;;;;12.97;11.80;;;12.30;99.90;;;;;;5093064;28;20408;-70
2022/04/23 06:44:24;;;;;;;12.93;11.83;;;12.30;99.90;;;;;;5093147;28;20406;-70
2022/04/23 06:46:49;;;;;;;13.00;11.80;;;12.10;99.90;;;;;;5094347;28;20428;-70
2022/04/23 06:49:15;;;;;;;12.50;11.30;;;12.10;99.90;;;;;;5094742;28;20403;-70
2022/04/23 06:51:40;;;;;;;11.30;10.30;;;12.10;99.90;;;;;;5093888;28;20561;-70
2022/04/23 06:54:07;;;;;;;11.67;10.67;;;12.20;99.90;;;;;;5094199;28;20171;-69
2022/04/23 06:56:33;;;;;;;11.50;10.50;;;12.20;99.90;;;;;;5109516;28;20640;-69
2022/04/23 06:58:59;;;;;;;11.43;10.43;;;12.20;99.90;;;;;;5094378;28;20481;-69
2022/04/23 07:01:25;;;;;;;11.50;10.40;;;12.00;99.90;;;;;;5095307;28;20428;-69
2022/04/23 07:03:50;;;;;;;11.70;10.70;;;12.00;99.90;;;;;;5096565;28;20407;-70
2022/04/23 07:06:16;;;;;;;12.40;11.30;;;12.20;99.90;;;;;;5096248;28;20426;-69
2022/04/23 07:08:45;;;;;;;12.50;11.50;;;12.30;99.90;;;;;;5095770;28;20179;-70
2022/04/23 07:11:11;;;;;;;12.47;11.47;;;12.40;99.90;;;;;;5096036;28;20202;-70
2022/04/23 07:13:38;;;;;;;11.80;10.80;;;12.30;99.90;;;;;;5096452;28;20403;-70
2022/04/23 07:16:04;;;;;;;12.73;11.63;;;12.40;99.90;;;;;;5095772;28;20450;-69
2022/04/23 07:18:31;;;;;;;12.00;11.10;;;12.60;99.90;;;;;;5096222;28;20504;-69
2022/04/23 07:20:57;;;;;;;12.87;11.67;;;12.40;99.90;;;;;;5095298;28;20879;-69
2022/04/23 07:26:06;;;;;;;12.90;11.80;;;12.20;99.90;;;;;;5095930;28;20220;-70
2022/04/23 07:28:32;;;;;;;11.37;10.37;;;12.50;99.90;;;;;;5095390;28;20404;-70
2022/04/23 07:30:58;;;;;;;10.97;10.03;;;12.50;99.90;;;;;;5094394;28;20599;-70
2022/04/23 07:38:52;;;;;;;18.83;14.73;;;13.10;99.90;;;;;;5094934;28;20385;-70
2022/04/23 07:41:18;;;;;;;11.50;10.50;;;13.00;99.90;;;;;;5095374;28;20406;-70
2022/04/23 07:43:44;;;;;;;11.50;10.50;;;13.20;99.90;;;;;;5094729;28;20235;-70
2022/04/23 07:46:09;;;;;;;10.70;9.70;;;13.40;99.90;;;;;;5094382;28;20421;-70
2022/04/23 07:48:35;;;;;;;11.43;10.43;;;13.10;99.90;;;;;;5082967;28;20176;-70
2022/04/23 07:51:01;;;;;;;11.77;10.77;;;13.20;99.90;;;;;;5093036;28;20183;-69
2022/04/23 07:53:26;;;;;;;11.93;10.50;;;13.20;99.90;;;;;;5094423;28;20693;-69
2022/04/23 07:55:52;;;;;;;11.30;10.27;;;13.40;99.90;;;;;;5094350;28;20264;-70
2022/04/23 07:58:17;;;;;;;10.87;9.83;;;13.40;99.90;;;;;;5094595;28;20171;-69
2022/04/23 08:00:45;;;;;;;11.23;10.23;;;13.30;99.90;;;;;;5093283;28;20168;-70
2022/04/23 08:03:10;;;;;;;11.17;10.17;;;13.10;99.90;;;;;;5090034;28;20171;-69
2022/04/23 08:05:36;;;;;;;10.73;9.83;;;13.30;99.90;;;;;;5079158;28;20453;-69
2022/04/23 08:08:02;;;;;;;12.30;9.57;;;13.10;99.90;;;;;;5092802;28;20218;-69
2022/04/23 08:10:28;;;;;;;12.27;11.03;;;13.20;99.90;;;;;;5091874;28;20254;-70
2022/04/23 08:12:56;;;;;;;11.57;10.47;;;13.40;99.90;;;;;;5093415;28;20539;-70
2022/04/23 08:15:23;;;;;;;10.73;9.70;;;13.20;99.90;;;;;;5092180;28;20175;-69
2022/04/23 08:17:48;;;;;;;10.77;9.70;;;13.20;99.90;;;;;;5092769;28;20396;-70
2022/04/23 08:20:14;;;;;;;11.93;10.90;;;13.70;99.90;;;;;;5094117;28;20422;-69
2022/04/23 08:22:40;;;;;;;11.40;10.30;;;13.90;99.90;;;;;;5093163;28;20200;-69
2022/04/23 08:25:06;;;;;;;11.70;10.67;;;13.80;99.90;;;;;;5093700;28;20824;-69
2022/04/23 08:27:52;;;;;;;11.70;10.60;;;13.60;99.90;;;;;;5094430;28;20646;-69
2022/04/23 08:30:37;;;;;;;11.90;9.80;;;13.20;99.90;;;;;;5094673;28;20753;-69
2022/04/23 08:33:04;;;;;;;11.03;9.93;;;13.20;99.90;;;;;;5094557;28;20430;-70
2022/04/23 08:35:30;;;;;;;10.93;9.90;;;13.30;99.90;;;;;;5094314;28;20817;-69
2022/04/23 08:37:56;;;;;;;11.43;10.40;;;13.50;99.90;;;;;;5094028;28;20777;-70
2022/04/23 08:40:22;;;;;;;12.63;11.43;;;13.90;99.90;;;;;;5093942;28;20403;-69
2022/04/23 08:42:47;;;;;;;11.83;10.77;;;14.00;99.90;;;;;;5094132;28;20167;-70
2022/04/23 08:45:13;;;;;;;11.60;10.50;;;13.90;99.90;;;;;;5093457;28;20402;-69
2022/04/23 08:47:44;;;;;;;11.13;10.03;;;14.20;99.90;;;;;;5093872;28;20172;-70
2022/04/23 08:50:10;;;;;;;11.50;10.30;;;14.50;99.90;;;;;;5083636;28;20179;-70
2022/04/23 08:52:37;;;;;;;12.43;11.23;;;14.60;99.90;;;;;;5082478;28;20468;-69
2022/04/23 08:55:06;;;;;;;11.97;10.77;;;14.40;99.90;;;;;;5073273;28;20399;-69
2022/04/23 08:57:32;;;;;;;11.07;9.97;;;13.80;99.90;;;;;;5073750;28;20552;-70
2022/04/23 08:59:59;;;;;;;11.50;10.43;;;13.70;99.90;;;;;;5073495;28;20899;-70
2022/04/23 09:02:26;;;;;;;11.90;10.70;;;14.00;99.90;;;;;;5087345;28;20860;-69
2022/04/23 09:04:56;;;;;;;12.53;11.37;;;14.10;99.90;;;;;;5109345;28;20412;-69
2022/04/23 09:07:29;;;;;;;11.33;10.33;;;13.60;99.90;;;;;;5093550;28;20562;-69
2022/04/23 09:09:57;;;;;;;11.37;10.30;;;13.20;99.90;;;;;;5093236;28;20399;-69
2022/04/23 09:12:24;;;;;;;12.17;11.03;;;13.60;99.90;;;;;;5093669;28;20438;-69
2022/04/23 09:14:51;;;;;;;12.73;11.57;;;13.90;99.90;;;;;;5093900;28;20404;-69
2022/04/23 09:25:44;;;;;;;11.97;10.87;;;14.80;99.90;;;;;;5093787;28;20429;-69
2022/04/23 09:28:20;;;;;;;12.37;11.17;;;14.90;99.90;;;;;;5093167;28;20404;-69
2022/04/23 09:30:51;;;;;;;11.83;10.70;;;15.20;99.90;;;;;;5091377;28;20410;-69
2022/04/23 09:33:18;;;;;;;12.70;11.47;;;15.80;99.90;;;;;;5093175;28;20435;-69
2022/04/23 09:35:59;;;;;;;11.73;10.47;;;15.70;99.90;;;;;;5092991;28;20407;-68
2022/04/23 09:38:26;;;;;;;11.13;10.03;;;15.70;99.90;;;;;;5093459;28;20789;-69
2022/04/23 09:40:53;;;;;;;10.87;9.77;;;15.70;99.90;;;;;;5093320;28;20398;-69
2022/04/23 09:43:30;;;;;;;10.30;9.37;;;15.40;99.90;;;;;;5092981;28;20752;-69
2022/04/23 09:46:14;;;;;;;10.60;9.50;;;15.30;99.90;;;;;;5091060;28;20419;-69
2022/04/23 09:48:43;;;;;;;10.67;9.57;;;15.50;99.90;;;;;;5092956;28;20380;-69
2022/04/23 09:51:25;;;;;;;9.87;8.97;;;15.50;99.90;;;;;;5092826;28;20485;-69
2022/04/23 09:53:55;;;;;;;10.80;8.90;;;15.40;99.90;;;;;;5092858;28;20403;-69
2022/04/23 09:56:25;;;;;;;9.97;9.07;;;15.10;99.90;;;;;;5092614;28;20849;-69
2022/04/23 09:58:52;;;;;;;9.40;8.60;;;15.20;99.90;;;;;;5092699;28;20409;-70
2022/04/23 10:01:20;;;;;;;9.90;8.90;;;15.30;99.90;;;;;;5091595;28;20606;-70
2022/04/23 10:03:49;;;;;;;9.30;8.30;;;15.20;99.90;;;;;;5092666;28;20414;-70
2022/04/23 10:06:18;;;;;;;8.10;7.40;;;15.40;99.90;;;;;;5092839;28;20457;-70
2022/04/23 10:08:45;;;;;;;9.10;8.00;;;15.30;99.90;;;;;;5092717;28;20451;-70
2022/04/23 10:11:19;;;;;;;11.27;10.27;;;15.20;99.90;;;;;;5092721;28;20417;-70
2022/04/23 10:13:51;;;;;;;8.00;7.30;;;15.20;99.90;;;;;;5092649;28;20396;-70
2022/04/23 10:18:45;;;;;;;10.00;7.90;;;15.20;99.90;;;;;;5050458;28;20460;-69
2022/04/23 10:21:17;;;;;;;8.30;7.60;;;14.90;99.90;;;;;;5052182;28;20413;-69
2022/04/23 10:24:07;;;;;;;7.40;6.70;;;14.90;99.90;;;;;;5035037;28;20481;-70
2022/04/23 10:26:50;;;;;;;7.53;6.73;;;15.00;99.90;;;;;;5035001;28;20408;-70
2022/04/23 10:29:27;;;;;;;7.60;6.23;;;15.20;99.90;;;;;;5052952;28;20421;-70
2022/04/23 10:32:14;;;;;;;7.83;7.03;;;15.00;99.90;;;;;;5052569;28;20442;-69
2022/04/23 10:34:41;;;;;;;7.47;6.13;;;14.60;99.90;;;;;;5055829;28;20414;-70
2022/04/23 10:37:13;;;;;;;7.30;5.83;;;14.60;99.90;;;;;;5056918;28;20459;-70
2022/04/23 10:39:38;;;;;;;6.30;5.70;;;15.10;99.90;;;;;;5060941;28;20404;-71
2022/04/23 10:42:05;;;;;;;7.63;6.53;;;15.20;99.90;;;;;;5064143;28;20494;-70
2022/04/23 10:44:31;;;;;;;7.10;6.40;;;15.00;99.90;;;;;;5063280;28;20185;-72
2022/04/23 10:46:58;;;;;;;6.63;6.03;;;15.20;99.90;;;;;;5043500;28;20452;-71
2022/04/23 10:49:25;;;;;;;7.50;6.80;;;14.90;99.90;;;;;;5056315;28;20464;-71
2022/04/23 10:51:58;;;;;;;7.40;6.73;;;14.80;99.90;;;;;;5021794;28;20460;-70
2022/04/23 10:54:39;;;;;;;6.30;5.70;;;15.10;99.90;;;;;;5057118;28;20920;-71
2022/04/23 10:57:07;;;;;;;8.10;7.30;;;15.50;99.90;;;;;;5055881;28;20963;-70
2022/04/23 10:59:47;;;;;;;8.13;7.43;;;15.60;99.90;;;;;;5056018;28;20442;-70
2022/04/23 11:02:19;;;;;;;7.43;6.67;;;15.50;99.90;;;;;;5054302;28;20933;-69
2022/04/23 11:13:28;;;;;;;7.90;7.20;;;15.60;99.90;;;;;;5016026;28;20444;-70
2022/04/23 11:16:18;;;;;;;8.63;7.83;;;15.70;99.90;;;;;;5016214;28;20393;-69
2022/04/23 11:18:52;;;;;;;7.20;6.50;;;15.40;99.90;;;;;;5016139;28;20762;-70
2022/04/23 11:21:28;;;;;;;8.33;7.53;;;15.60;99.90;;;;;;5016644;28;20896;-70
2022/04/23 11:23:55;;;;;;;8.33;7.30;;;15.70;99.90;;;;;;5015933;28;20425;-70
2022/04/23 11:26:38;;;;;;;10.20;9.23;;;15.70;99.90;;;;;;5016036;28;20399;-70
2022/04/23 11:29:05;;;;;;;8.77;7.97;;;15.60;99.90;;;;;;5016454;28;20881;-70
2022/04/23 11:31:31;;;;;;;9.40;8.50;;;15.60;99.90;;;;;;5030793;28;20449;-70
2022/04/23 11:33:58;;;;;;;8.10;7.30;;;15.70;99.90;;;;;;5055558;28;20812;-70
2022/04/23 11:36:29;;;;;;;10.30;9.30;;;15.70;99.90;;;;;;5055766;28;20177;-70
2022/04/23 11:38:55;;;;;;;9.00;8.10;;;15.60;99.90;;;;;;5055290;28;20388;-70
2022/04/23 11:41:29;;;;;;;10.50;8.47;;;15.80;99.90;;;;;;5037259;28;20479;-70
2022/04/23 11:43:55;;;;;;;8.30;7.50;;;15.60;99.90;;;;;;5043692;28;20483;-70
2022/04/23 11:46:21;;;;;;;10.73;8.37;;;15.90;99.90;;;;;;5026035;28;20454;-70
2022/04/23 11:48:48;;;;;;;8.90;8.10;;;15.90;99.90;;;;;;5034971;28;20437;-70
2022/04/23 11:51:15;;;;;;;8.90;8.10;;;15.60;99.90;;;;;;5035036;28;20175;-70
2022/04/23 11:54:00;;;;;;;8.93;8.10;;;15.70;99.90;;;;;;5035066;28;20418;-70
2022/04/23 11:56:32;;;;;;;10.03;8.97;;;15.60;99.90;;;;;;5034896;28;20869;-70
2022/04/23 11:59:04;;;;;;;9.17;8.27;;;15.50;99.90;;;;;;5035109;28;20381;-70
2022/04/23 12:01:30;;;;;;;9.97;8.97;;;15.90;99.90;;;;;;5038719;28;20943;-70
2022/04/23 12:03:57;;;;;;;9.40;8.50;;;15.70;99.90;;;;;;5054553;28;20495;-70
2022/04/23 12:06:24;;;;;;;9.10;8.20;;;15.80;99.90;;;;;;5054753;28;20194;-70
2022/04/23 12:08:50;;;;;;;8.70;7.90;;;15.80;99.90;;;;;;5054504;28;20776;-70
2022/04/23 12:11:24;;;;;;;9.93;8.93;;;15.60;99.90;;;;;;5054496;28;20413;-69
2022/04/23 12:13:50;;;;;;;11.20;8.50;;;15.80;99.90;;;;;;5054458;28;20384;-69
2022/04/23 12:16:38;;;;;;;8.80;7.30;;;15.60;99.90;;;;;;5054223;28;20408;-69
2022/04/23 12:19:12;;;;;;;9.80;8.90;;;15.80;99.90;;;;;;5054495;28;20390;-70
2022/04/23 12:21:39;;;;;;;9.13;8.33;;;15.90;99.90;;;;;;5054563;28;20508;-69
2022/04/23 12:24:07;;;;;;;10.47;8.93;;;15.90;99.90;;;;;;5054466;28;20401;-68
2022/04/23 12:26:37;;;;;;;9.67;8.63;;;15.80;99.90;;;;;;5054400;28;20920;-69
2022/04/23 12:43:20;;;;;;;9.60;8.07;;;16.20;99.90;;;;;;5054690;28;20389;-69
2022/04/23 12:45:46;;;;;;;9.87;8.97;;;16.20;99.90;;;;;;5054185;28;20409;-68
2022/04/23 12:48:12;;;;;;;9.30;8.50;;;16.40;99.90;;;;;;5054049;28;20448;-69
2022/04/23 12:50:38;;;;;;;9.30;8.60;;;16.70;99.90;;;;;;5053973;28;20406;-69
2022/04/23 12:53:04;;;;;;;9.20;8.30;;;16.70;99.90;;;;;;5054203;28;20616;-69
2022/04/23 12:55:32;;;;;;;8.60;7.80;;;16.60;99.90;;;;;;5054327;28;20503;-69
2022/04/23 12:58:04;;;;;;;10.00;9.10;;;16.80;99.90;;;;;;5053031;28;20463;-70
2022/04/23 13:00:42;;;;;;;9.67;8.33;;;16.60;99.90;;;;;;5052725;28;20485;-70
2022/04/23 13:03:37;;;;;;;8.10;7.30;;;16.20;99.90;;;;;;5054161;28;20897;-70
2022/04/23 13:08:54;;;;;;;10.80;8.10;;;16.20;99.90;;;;;;5053881;28;20424;-70
2022/04/23 13:08:54;;;;;;;8.97;8.17;;;16.30;99.90;;;;;;5040889;28;20402;-70
2022/04/23 13:11:32;;;;;;;10.57;8.73;;;16.20;99.90;;;;;;5033453;28;20824;-69
2022/04/23 13:14:04;;;;;;;9.73;8.57;;;16.00;99.90;;;;;;5033524;28;20386;-69
2022/04/23 13:16:32;;;;;;;8.40;7.60;;;16.30;99.90;;;;;;5032698;28;20476;-70